Melfort, Canada
Current Conditions -  °F | °C
As of 7:00 PM on Saturday 25 Oct 2014 (Local Time) from CYBU Reporting Station
Clear Clear  
Wind Chill: 30°   Ceiling: Unl
Heat Index: 30°   Visibility: 9mi
Dew Point: 25°   Wind: 3mph
Humidity: 80%   Direction: 100°E
Pressure: 29.95"   Gusts: NA
Location:  52.86°N, 104.62°W
Report Text: CYBU 260100Z AUTO 10003KT 9SM CLR M01/M04 A2995 RMK SLP163
Loading
Personal Weather Stations






























Interactive Weather Map
Tropical Storm Tracking
New forecast layout! Learn more

10-Day Weather Forecast

Advertisements
Track Severe Weather on mobile